Andover, SD

5:28 PM CDT on July 22, 2014 (GMT -0500)
KSDGROTO1 Elev 1295 ft | 45.45 °N, 98.10 °W | Change Station

Current weather conditions updated 9 minutes ago

Clear
Clear
80.1 °F
Feels Like 81 °F
N
4.0
Wind Variable Wind from ENE
Gusts 11.0 mph

Tomorrow is forecast to be nearly the same temperature as today.

Today
High -- | Low -- °F
--% Chance of Precip.
Yesterday
High -- | Low -- °F
Precip. -- in
6:04 AM 9:10 PM
Waning Crescent, 14% visible
Pressure 30.17 in
Visibility 10.0 miles
Clouds Few 4400 ft
Heat Index 81 °F
Dew Point 62 °F
Humidity 55%
Rainfall 0.00 in
Snow Depth Not available.
UV 6 out of 12
Pollen 6.10 out of 12
Air Quality Not available.
Flu Activity Not available.
METAR KABR 222153Z AUTO 05009KT 10SM FEW044 27/16 A3019 RMK AO2 SLP216 T02670161

More Conditions Fewer Conditions

Pressure 30.17 in
Visibility 10.0 miles
Clouds Few 4400 ft
Heat Index 81 °F
Dew Point 62 °F
Humidity 55%
Rainfall 0.00 in
Snow Depth Not available.
UV 6 out of 12
Pollen 6.10 out of 12
Air Quality Not available.
Flu Activity Not available.
METAR KABR 222153Z AUTO 05009KT 10SM FEW044 27/16 A3019 RMK AO2 SLP216 T02670161

More Conditions Fewer Conditions

10-Day Weather Forecast

Almanac

Astronomy

Jul. 22, 2014 Rise Set
Actual Time 6:04 AM CDT 9:10 PM CDT
Civil Twilight 5:29 AM CDT 9:46 PM CDT
Nautical Twilight 4:43 AM CDT 10:31 PM CDT
Astronomical Twilight 3:48 AM CDT 11:26 PM CDT
Moon 2:41 AM CDT 5:48 PM CDT
Length of Visible Light 16h 16m
Length of Day
15h 06m
Tomorrow will be 2m 4s shorter.
Waning Crescent, 14% of the Moon is Illuminated
Today
Waning Crescent
Jul 26
New
Aug 3
First Quarter
Aug 10
Full
Aug 17
Last Quarter

Today's Extremes

State Highs State Lows

Community

WunderPhotos

Upload Photos

1,736,381 photos uploaded!

Nearby

Snow Depth

Station Depth Elevation
Blind Park 1 in 6890 ft

Earthquake Activity

City Distance Mag. Time & Date
No recent earthquake activity has been reported nearby.
Minimum magnitude displayed is 2.5.

Coastal Water Temperatures

Place Temperature
No Stations Reporting

Nearby Weather Stations

Station Location Temp. Heat Index Dew Point Humidity Wind Precip. Elev Updated Type
Groton, SD 80.1 °F 81 °F 62 °F 55% ENE  at  4.0 mph 0.00 in / hr 1295 ft 5:19 PM CDT Normal
NonFedAWOS WEBSTERMUNC , Webster, SD 77 °F 79 °F 55 °F 47% NNE  at  13 mph 0.00 in / hr 1854 ft 3:55 PM CDT MADIS

Show More Stations Show Fewer Stations